Search for airport 
image banner adimage banner ad
image banner ad

SVKX - Cachimbo

Located in Lara, Venezuela

ICAO - , IATA -

Data provided by Airmate  

General information

Coordinates: N10°1'60" W69°10'0"
Elevation is feet MSL.
 
Rated:
View ratings: [VIEW]


View others Airports in Lara

Operational data

Open for public use
Current time UTC:
Current local time:
METAR: SVBM 061902Z AUTO 13013KT NCD 36/16 Q1016
TAF: TAF SVBM 061613Z 0618/0718 11010KT 7000 TSRA BKN013CB TX31/0618Z TN22/0708Z BECMG 0620/0700 070008KT 4000 TSDZ FEW013CB BKN060
View NOTAMs / SUP AIP / TFR affecting this airport [VIEW]
Communications frequencies: [VIEW]

Runways:

RWY identifierQFULength (ft)Width (ft)SurfaceLDA (ft)
0800
2600

Airport contact information

Address: Lara Venezuela

Satellite view of SVKX